AirNav   Bose Proflight Series 2 Wireless Aviation Headset
 
 318 users online  

4SC4 Davis Field Ultralight Flightpark
Liberty, South Carolina, USA

GOING TO LIBERTY?


FAA INFORMATION EFFECTIVE 07 NOVEMBER 2019

Location

FAA Identifier: 4SC4
Lat/Long: 34-45-55.0000N 082-41-28.0000W
34-45.916667N 082-41.466667W
34.7652778,-82.6911111
(estimated)
Elevation: 940 ft. / 287 m (estimated)
Variation: 04W (1995)
From city: 2 miles S of LIBERTY, SC
Time zone: UTC -5 (UTC -4 during Daylight Saving Time)
Zip code: 29657

Ultralight Flight Park Operations

Ultralight Flight Park use: Private use. Permission required prior to landing
Activation date: 12/1999
Control tower: no
ARTCC: ATLANTA CENTER
FSS: ANDERSON FLIGHT SERVICE STATION
Attendance: IREG
Segmented circle: no

Ultralight Flight Park Communications

WX AWOS-3 at LQK (2.7 nm N): 120.0 (864-843-5801)
WX ASOS at CEU (11 nm SW): 119.275 (864-882-0144)
WX AWOS-3 at GYH (16 nm E): 127.325 (864-277-5674)
WX ASOS at AND (16 nm S): 120.675 (864-226-9522)
WX ASOS at GMU (18 nm E): 127.075 (864-239-0014)

Nearby radio navigation aids

VOR radial/distance  VOR name  Freq  Var
ELWr013/21.3ELECTRIC CITY VORTAC108.6000E
ODFr082/30.2FOOTHILLS VORTAC113.4000E

 
NDB name  Hdg/Dist  Freq  Var  ID
DYANA294/13.033804WGY --. -.--
BROAD RIVER207/32.337907WBRA -... .-. .-
FAIRMONT262/35.724805WFRT ..-. .-. -

Ultralight Flight Park Services

Runway Information

Runway 12/30

Dimensions: 850 x 50 ft. / 259 x 15 m
Surface: turf, in good condition
RUNWAY 12  RUNWAY 30
Traffic pattern: leftleft
Obstructions: 50 ft. trees, 200 ft. from runway10 ft. trees, 800 ft. from runway

Ultralight Flight Park Ownership and Management from official FAA records

Ownership: Privately-owned
Owner: MICHAEL DAVIS
114 BRACKEN COURT
LIBERTY, SC 29657
Phone 864-639-7032
Manager: MICHAEL DAVIS
114 BRACKEN COURT
LIBERTY, SC 29657
Phone 864-639-7032

Ultralight Flight Park Operational Statistics

Aircraft based on the field: 1
Ultralights: 1
    

Additional Remarks

FOR CD CTC ATLANTA ARTCC AT 770-210-7692.

Instrument Procedures

There are no published instrument procedures at 4SC4.

Some nearby airports with instrument procedures:

KLQK - Pickens County Airport (3 nm N)
KCEU - Oconee County Regional Airport (11 nm SW)
KGYH - Donaldson Field Airport (16 nm E)
KAND - Anderson Regional Airport (16 nm S)
KGMU - Greenville Downtown Airport (18 nm E)
 
Loc | Ops | Rwys | IFR | FBO | Links
Com | Nav | Svcs | Stats | Notes
Area around 4SC4 (Davis Field Ultralight Flightpark)
 
Road maps at: MapQuest Bing Google
 
Aerial photo
No photo
 
Sectional chart

 
Airport distance calculator
Flying to Davis Field Ultralight Flightpark? Find the distance to fly.

From to 4SC4

Sunrise and sunset
Times for 12-Nov-2019
 Local
(UTC-5)
 Zulu
(UTC)
Morning civil twilight06:3611:36
Sunrise07:0312:03
Sunset17:2722:27
Evening civil twilight17:5422:54

Current date and time
Zulu (UTC)  12-Nov-2019 10:51:02
Local (UTC-5)  12-Nov-2019 05:51:02
 
METAR
KLQK 
3nm N 
121035Z AUTO 00000KT 3SM +RA BKN015 OVC026 11/11 A2986 RMK AO2 T01110111
KCEU 
11nm SW 
121029Z AUTO 29004KT 2 1/2SM -RA BR BKN015 OVC020 11/11 A2988 RMK AO2 P0002 T01110106
KGYH 
16nm E 
121035Z AUTO 26003KT 5SM -RA OVC008 12/11 A2987 RMK AO2
KAND 
16nm S 
121014Z AUTO 00000KT 5SM -RA BR BKN013 BKN021 OVC045 13/12 A2986 RMK AO2 P0001 T01330122
KGMU 
18nm E 
121024Z AUTO 28005KT 5SM -RA BR OVC010 12/12 A2988 RMK AO2 P0001 T01220117
TAF
KAND 
16nm S 
120907Z 1209/1306 26006KT 5SM -SHRA BR OVC010 FM121400 30009G16KT 4SM -SHRA BR OVC007 FM121700 33011G18KT P6SM BKN025 FM122000 36009G16KT P6SM FEW060
KGMU 
18nm E 
120923Z 1209/1306 23006KT P6SM -SHRA OVC015 FM121100 29009KT 5SM -SHRA BR OVC010 TEMPO 1211/1213 3SM -RA BR BKN007 FM121300 34014G22KT 4SM -SHRA BR OVC022 FM121600 01015G23KT P6SM SCT050
NOTAMs
Click for the latest NOTAMs
NOTAMs are issued by the DoD/FAA and will open in a separate window not controlled by AirNav.

 

 
 

Would you like to see your business listed on this page?

 If your business provides an interesting product or service to pilots, flight crews, aircraft, or users of the Davis Field Ultralight Flightpark, you should consider listing it here.  To start the listing process, click on the button below
 
Add a business
 

Other Pages about Davis Field Ultralight Flightpark

Update a link
 
Copyright © AirNav, LLC. All rights reserved. Privacy Policy  Contact